Time;durP1;ratioP1;P1;durP2;ratioP2;P2;SDS_P1;SDS_P2;PMS_P1;PMS_P2;Temp;Humidity;BMP_temperature;BMP_pressure;BME280_temperature;BME280_humidity;BME280_pressure;Samples;Min_cycle;Max_cycle;Signal;HPM_P1;HPM_P2
2021/01/12 00:00:54;;;;;;;;;;;;;;;3.03;44.41;101095.34;5082944;28;19917;-79
2021/01/12 00:03:39;;;;;;;;;;;;;;;2.68;44.75;101095.00;5082967;28;19916;-79
2021/01/12 00:06:23;;;;;;;;;;;;;;;2.51;44.65;101090.53;5059598;28;19916;-79
2021/01/12 00:09:07;;;;;;;;;;;;;;;2.55;44.85;101096.22;5069213;28;19924;-79
2021/01/12 00:11:53;;;;;;;;;;;;;;;2.81;47.96;101098.09;5069460;28;19912;-79
2021/01/12 00:14:37;;;;;;;;;;;;;;;2.74;47.04;101091.31;5075413;28;20198;-79
2021/01/12 00:17:22;;;;;;;;;;;;;;;2.53;46.00;101090.28;5092936;28;19913;-79
2021/01/12 00:20:07;;;;;;;;;;;;;;;2.41;47.52;101093.13;5091435;28;19916;-79
2021/01/12 00:22:52;;;;;;;;;;;;;;;2.21;48.17;101081.34;5088129;28;19912;-79
2021/01/12 00:25:36;;;;;;;;;;;;;;;2.66;44.85;101087.19;5080561;28;19913;-80
2021/01/12 00:28:21;;;;;;;;;;;;;;;2.36;44.75;101087.69;5071407;28;19912;-79
2021/01/12 00:31:05;;;;;;;;;;;;;;;2.69;48.97;101089.41;5078572;28;19913;-80
2021/01/12 00:33:50;;;;;;;;;;;;;;;2.28;48.22;101095.38;5064177;28;19913;-79
2021/01/12 00:36:42;;;;;;;;;;;;;;;2.45;49.06;101094.22;5075625;28;19912;-79
2021/01/12 00:39:26;;;;;;;;;;;;;;;2.67;46.59;101088.81;5086761;28;19912;-79
2021/01/12 00:42:12;;;;;;;;;;;;;;;2.65;47.22;101096.31;5080327;28;19924;-79
2021/01/12 00:44:57;;;;;;;;;;;;;;;2.68;45.25;101097.69;5086980;28;19912;-79
2021/01/12 00:47:43;;;;;;;;;;;;;;;2.44;45.86;101087.22;5069030;28;19912;-79
2021/01/12 00:50:27;;;;;;;;;;;;;;;2.78;46.89;101082.50;5075937;28;19912;-79
2021/01/12 00:53:12;;;;;;;;;;;;;;;2.64;48.06;101093.91;5086335;28;19912;-79
2021/01/12 00:55:56;;;;;;;;;;;;;;;2.57;48.13;101092.22;5083709;28;19912;-79
2021/01/12 00:58:41;;;;;;;;;;;;;;;2.53;48.62;101085.75;5082272;28;19912;-80
2021/01/12 01:01:29;;;;;;;;;;;;;;;2.69;47.74;101078.66;5070953;28;19916;-79
2021/01/12 01:04:14;;;;;;;;;;;;;;;2.76;47.85;101081.13;5071604;23;19929;-78
2021/01/12 01:06:58;;;;;;;;;;;;;;;2.75;48.63;101091.03;5049817;28;20391;-77
2021/01/12 01:09:43;;;;;;;;;;;;;;;2.65;48.49;101088.25;5040336;28;19913;-78
2021/01/12 01:12:27;;;;;;;;;;;;;;;2.59;48.46;101092.75;5043187;28;19913;-79
2021/01/12 01:15:12;;;;;;;;;;;;;;;2.53;48.95;101096.47;5048671;28;20375;-78
2021/01/12 01:17:56;;;;;;;;;;;;;;;2.43;48.85;101093.69;5026690;28;19921;-77
2021/01/12 01:20:41;;;;;;;;;;;;;;;2.44;49.02;101097.16;5033026;28;19913;-77
2021/01/12 01:23:25;;;;;;;;;;;;;;;2.47;49.71;101099.34;5042118;28;19912;-80
2021/01/12 01:26:10;;;;;;;;;;;;;;;2.44;49.26;101097.97;5042191;28;19917;-78
2021/01/12 01:28:55;;;;;;;;;;;;;;;2.54;48.69;101092.72;5041933;28;19912;-78
2021/01/12 01:31:42;;;;;;;;;;;;;;;2.66;48.76;101092.56;5034987;28;19913;-78
2021/01/12 01:34:26;;;;;;;;;;;;;;;2.73;48.48;101090.50;5039542;28;19917;-77
2021/01/12 01:37:11;;;;;;;;;;;;;;;2.71;48.27;101089.13;5048868;28;19913;-78
2021/01/12 01:39:55;;;;;;;;;;;;;;;2.70;48.23;101095.53;5039052;28;19917;-78
2021/01/12 01:42:39;;;;;;;;;;;;;;;2.58;48.35;101093.84;5030923;28;19913;-80
2021/01/12 01:45:24;;;;;;;;;;;;;;;2.57;48.49;101092.22;5042356;28;20371;-80
2021/01/12 01:48:09;;;;;;;;;;;;;;;2.55;48.75;101091.66;5043846;28;19913;-79
2021/01/12 01:50:53;;;;;;;;;;;;;;;2.60;49.57;101085.53;5047386;28;19916;-79
2021/01/12 01:53:38;;;;;;;;;;;;;;;2.63;48.46;101095.78;5045554;28;20383;-81
2021/01/12 01:56:24;;;;;;;;;;;;;;;2.64;48.79;101097.41;5051920;28;19913;-80
2021/01/12 01:59:09;;;;;;;;;;;;;;;2.64;48.73;101085.84;5049842;28;19917;-79
2021/01/12 02:01:53;;;;;;;;;;;;;;;2.48;48.57;101080.31;5034000;28;19921;-79
2021/01/12 02:04:39;;;;;;;;;;;;;;;2.42;49.02;101073.28;5044120;28;20460;-80
2021/01/12 02:07:23;;;;;;;;;;;;;;;2.67;48.41;101069.22;5045013;28;19912;-80
2021/01/12 02:10:10;;;;;;;;;;;;;;;2.42;49.02;101078.63;5043212;28;19913;-79
2021/01/12 02:13:01;;;;;;;;;;;;;;;2.38;48.69;101065.97;5031872;28;19913;-79
2021/01/12 02:15:46;;;;;;;;;;;;;;;2.44;48.94;101065.75;5038050;28;19913;-78
2021/01/12 02:18:34;;;;;;;;;;;;;;;2.63;48.37;101062.75;5030515;28;20453;-79
2021/01/12 02:21:19;;;;;;;;;;;;;;;2.80;47.84;101066.09;5044847;28;19913;-80
2021/01/12 02:24:04;;;;;;;;;;;;;;;2.81;47.30;101060.50;5049193;28;19913;-78
2021/01/12 02:26:48;;;;;;;;;;;;;;;2.85;47.89;101053.53;5052989;28;19912;-79
2021/01/12 02:29:34;;;;;;;;;;;;;;;2.84;48.35;101043.06;5050072;28;19913;-78
2021/01/12 02:32:19;;;;;;;;;;;;;;;2.93;47.53;101041.53;5054723;28;19912;-79
2021/01/12 02:35:04;;;;;;;;;;;;;;;2.84;47.87;101040.38;5049177;28;19913;-79
2021/01/12 02:37:49;;;;;;;;;;;;;;;2.81;47.59;101038.19;5043265;28;19916;-79
2021/01/12 02:40:35;;;;;;;;;;;;;;;2.82;46.89;101029.91;5044658;28;19913;-80
2021/01/12 02:43:20;;;;;;;;;;;;;;;2.82;46.99;101027.22;5034594;28;19921;-79
2021/01/12 02:46:05;;;;;;;;;;;;;;;2.83;47.03;101026.16;5049655;28;20395;-80
2021/01/12 02:48:49;;;;;;;;;;;;;;;2.84;47.80;101018.91;5034074;28;19912;-80
2021/01/12 02:51:36;;;;;;;;;;;;;;;2.81;47.51;101022.09;5040381;28;19912;-78
2021/01/12 02:54:21;;;;;;;;;;;;;;;2.73;47.32;101017.19;5036564;28;19912;-78
2021/01/12 02:57:05;;;;;;;;;;;;;;;2.69;47.14;101010.72;5059188;28;20303;-79
2021/01/12 02:59:50;;;;;;;;;;;;;;;2.77;47.24;101012.94;5050051;28;19916;-79
2021/01/12 03:02:34;;;;;;;;;;;;;;;2.81;47.03;101003.28;5041198;28;19912;-79
2021/01/12 03:05:19;;;;;;;;;;;;;;;2.81;46.97;100996.03;5045911;28;19912;-78
2021/01/12 03:08:04;;;;;;;;;;;;;;;2.80;46.39;100996.28;5042983;28;19920;-79
2021/01/12 03:10:48;;;;;;;;;;;;;;;2.79;46.28;101000.06;5043655;28;19913;-79
2021/01/12 03:13:34;;;;;;;;;;;;;;;2.76;45.99;100990.63;5036207;28;19917;-79
2021/01/12 03:16:18;;;;;;;;;;;;;;;2.69;46.48;100991.94;5043814;28;20379;-78
2021/01/12 03:19:03;;;;;;;;;;;;;;;2.65;46.34;100980.88;5046437;28;20290;-79
2021/01/12 03:21:49;;;;;;;;;;;;;;;2.63;46.67;100998.31;5053973;28;20374;-78
2021/01/12 03:24:33;;;;;;;;;;;;;;;2.65;46.13;100988.94;5029774;28;19913;-79
2021/01/12 03:27:18;;;;;;;;;;;;;;;2.62;46.52;100978.72;5044001;28;19917;-78
2021/01/12 03:30:03;;;;;;;;;;;;;;;2.58;46.76;100974.94;5036017;28;19912;-79
2021/01/12 03:32:49;;;;;;;;;;;;;;;2.55;47.08;100975.41;5046809;28;19920;-80
2021/01/12 03:35:34;;;;;;;;;;;;;;;2.46;47.08;100971.59;5044164;28;19913;-79
2021/01/12 03:38:18;;;;;;;;;;;;;;;2.42;47.23;100971.31;5050848;28;19917;-78
2021/01/12 03:41:04;;;;;;;;;;;;;;;2.24;47.94;100971.66;5060004;28;19913;-78
2021/01/12 03:43:49;;;;;;;;;;;;;;;2.22;47.83;100964.94;5039559;28;19913;-79
2021/01/12 03:46:34;;;;;;;;;;;;;;;2.29;48.75;100966.34;5041635;28;19912;-78
2021/01/12 03:49:21;;;;;;;;;;;;;;;2.29;47.93;100952.91;5051626;28;19913;-79
2021/01/12 03:52:06;;;;;;;;;;;;;;;2.21;48.27;100956.06;5052896;28;19913;-78
2021/01/12 03:54:50;;;;;;;;;;;;;;;2.07;48.55;100953.00;5021241;28;19913;-78
2021/01/12 03:57:34;;;;;;;;;;;;;;;2.17;48.76;100946.91;5024973;28;19912;-78
2021/01/12 04:00:20;;;;;;;;;;;;;;;2.16;49.07;100934.56;5052097;28;19917;-79
2021/01/12 04:03:05;;;;;;;;;;;;;;;2.21;48.16;100931.94;5059147;28;20394;-78
2021/01/12 04:05:51;;;;;;;;;;;;;;;2.04;48.02;100929.34;5045406;28;19913;-78
2021/01/12 04:08:36;;;;;;;;;;;;;;;2.04;48.58;100925.84;5053951;28;19921;-78
2021/01/12 04:11:21;;;;;;;;;;;;;;;1.95;49.00;100922.00;5053205;28;20287;-79
2021/01/12 04:14:06;;;;;;;;;;;;;;;1.93;48.86;100924.16;5042167;28;19912;-78
2021/01/12 04:16:50;;;;;;;;;;;;;;;1.86;48.64;100912.81;5041901;28;20371;-79
2021/01/12 04:19:35;;;;;;;;;;;;;;;2.00;49.42;100908.66;5037404;28;19916;-76
2021/01/12 04:22:19;;;;;;;;;;;;;;;2.04;48.46;100909.75;5052203;28;19913;-77
2021/01/12 04:25:05;;;;;;;;;;;;;;;2.01;49.34;100904.91;5054056;28;20371;-78
2021/01/12 04:27:49;;;;;;;;;;;;;;;1.89;48.63;100893.53;5057918;28;19913;-78
2021/01/12 04:30:33;;;;;;;;;;;;;;;1.95;48.98;100896.00;5051796;28;19913;-79
2021/01/12 04:33:18;;;;;;;;;;;;;;;2.04;49.39;100888.31;5044253;28;19913;-78
2021/01/12 04:36:03;;;;;;;;;;;;;;;1.91;48.68;100880.69;5032896;28;19913;-77
2021/01/12 04:38:48;;;;;;;;;;;;;;;1.88;49.00;100873.16;5039591;28;19917;-79
2021/01/12 04:41:33;;;;;;;;;;;;;;;1.82;48.72;100877.66;5057481;28;19912;-79
2021/01/12 04:44:17;;;;;;;;;;;;;;;2.04;49.92;100885.63;5035004;28;19912;-80
2021/01/12 04:47:04;;;;;;;;;;;;;;;1.90;49.09;100877.19;5058431;28;20432;-78
2021/01/12 04:49:52;;;;;;;;;;;;;;;1.89;49.89;100880.13;5059776;28;19913;-80
2021/01/12 04:52:50;;;;;;;;;;;;;;;1.88;50.21;100871.25;5053936;28;19916;-81
2021/01/12 04:55:35;;;;;;;;;;;;;;;1.79;49.52;100859.38;5053485;28;19912;-80
2021/01/12 04:58:19;;;;;;;;;;;;;;;1.81;49.39;100864.50;5029690;28;19921;-80
2021/01/12 05:01:07;;;;;;;;;;;;;;;1.81;49.33;100856.47;5048146;28;19912;-80
2021/01/12 05:03:52;;;;;;;;;;;;;;;1.73;49.27;100848.88;5053014;28;19913;-79
2021/01/12 05:06:38;;;;;;;;;;;;;;;1.88;48.81;100843.69;5041016;28;19917;-81
2021/01/12 05:09:23;;;;;;;;;;;;;;;1.77;48.38;100850.00;5052979;28;20407;-80
2021/01/12 05:12:11;;;;;;;;;;;;;;;1.82;48.60;100842.00;5053578;28;19916;-79
2021/01/12 05:14:57;;;;;;;;;;;;;;;1.67;49.15;100835.44;5055093;28;19912;-80
2021/01/12 05:17:44;;;;;;;;;;;;;;;1.68;49.43;100847.75;5059509;28;19913;-80
2021/01/12 05:20:31;;;;;;;;;;;;;;;1.48;49.38;100836.84;5052299;28;19917;-79
2021/01/12 05:23:23;;;;;;;;;;;;;;;1.56;50.61;100844.44;5053897;28;19912;-80
2021/01/12 05:26:10;;;;;;;;;;;;;;;1.59;50.23;100838.56;5052211;28;19913;-81
2021/01/12 05:28:58;;;;;;;;;;;;;;;1.60;49.64;100840.19;5039616;28;19912;-79
2021/01/12 05:31:46;;;;;;;;;;;;;;;1.71;50.02;100852.63;5044030;28;19913;-79
2021/01/12 05:34:35;;;;;;;;;;;;;;;1.69;49.58;100857.41;5037480;28;19913;-80
2021/01/12 05:37:21;;;;;;;;;;;;;;;1.68;48.56;100853.13;5055724;28;19913;-80
2021/01/12 05:40:07;;;;;;;;;;;;;;;1.82;49.04;100847.38;5050841;28;19917;-80
2021/01/12 05:43:02;;;;;;;;;;;;;;;1.78;49.25;100848.94;5056145;28;19912;-80
2021/01/12 05:45:47;;;;;;;;;;;;;;;1.79;48.58;100840.63;5040328;28;19916;-80
2021/01/12 05:48:32;;;;;;;;;;;;;;;1.73;48.34;100836.28;5053190;28;19913;-80
2021/01/12 05:51:17;;;;;;;;;;;;;;;1.65;47.70;100829.50;5056754;28;19917;-80
2021/01/12 05:54:03;;;;;;;;;;;;;;;1.86;47.67;100835.88;5052319;28;19913;-79
2021/01/12 05:56:50;;;;;;;;;;;;;;;1.86;48.04;100821.66;5055607;28;19913;-79
2021/01/12 05:59:37;;;;;;;;;;;;;;;1.70;47.93;100823.38;5046819;28;19924;-80
2021/01/12 06:02:25;;;;;;;;;;;;;;;1.73;47.41;100814.84;5043085;28;20363;-79
2021/01/12 06:05:10;;;;;;;;;;;;;;;2.08;47.94;100822.41;5035298;28;19917;-78
2021/01/12 06:07:55;;;;;;;;;;;;;;;2.00;47.11;100814.81;5049149;28;19913;-79
2021/01/12 06:10:41;;;;;;;;;;;;;;;2.00;48.80;100820.97;5052018;28;19912;-80
2021/01/12 06:13:31;;;;;;;;;;;;;;;1.91;47.77;100810.97;5039973;28;19913;-78
2021/01/12 06:16:17;;;;;;;;;;;;;;;1.87;48.47;100810.69;5044050;28;19912;-79
2021/01/12 06:19:06;;;;;;;;;;;;;;;1.80;49.03;100811.94;5056734;28;20387;-79
2021/01/12 06:21:54;;;;;;;;;;;;;;;1.67;49.56;100808.63;5036529;28;19913;-79
2021/01/12 06:24:38;;;;;;;;;;;;;;;1.72;49.14;100799.84;5031083;28;19920;-80
2021/01/12 06:27:24;;;;;;;;;;;;;;;1.71;49.78;100807.06;5042503;28;19913;-80
2021/01/12 06:30:10;;;;;;;;;;;;;;;1.59;53.10;100805.59;5033345;28;19913;-78
2021/01/12 06:32:55;;;;;;;;;;;;;;;1.56;53.94;100806.91;5050754;28;19912;-79
2021/01/12 06:35:40;;;;;;;;;;;;;;;1.63;55.66;100802.16;5026535;28;19913;-78
2021/01/12 06:38:25;;;;;;;;;;;;;;;1.58;55.45;100804.78;5048669;28;19916;-79
2021/01/12 06:41:10;;;;;;;;;;;;;;;1.55;56.64;100810.66;5035029;28;19912;-79
2021/01/12 06:44:00;;;;;;;;;;;;;;;1.50;58.05;100799.06;5027102;28;20375;-80
2021/01/12 06:46:45;;;;;;;;;;;;;;;1.58;58.31;100809.31;5038710;28;19913;-78
2021/01/12 06:49:29;;;;;;;;;;;;;;;1.65;58.59;100813.44;5061537;28;19912;-78
2021/01/12 06:52:14;;;;;;;;;;;;;;;1.66;58.21;100806.22;5044353;28;19913;-78
2021/01/12 06:55:04;;;;;;;;;;;;;;;1.63;59.48;100815.53;5042383;28;19913;-78
2021/01/12 06:57:50;;;;;;;;;;;;;;;1.77;59.91;100815.16;5047114;28;19913;-78
2021/01/12 07:00:36;;;;;;;;;;;;;;;1.78;60.36;100816.78;5043789;28;19992;-79
2021/01/12 07:03:27;;;;;;;;;;;;;;;1.86;60.18;100816.28;5053912;28;19913;-79
2021/01/12 07:06:12;;;;;;;;;;;;;;;1.46;60.11;100814.03;5068424;22;19921;-83
2021/01/12 07:08:58;;;;;;;;;;;;;;;0.95;60.72;100818.00;5016315;28;20383;-82
2021/01/12 07:11:43;;;;;;;;;;;;;;;0.67;61.64;100811.75;5045030;28;19968;-81
2021/01/12 07:14:27;;;;;;;;;;;;;;;0.78;62.19;100810.84;5041140;28;20391;-82
2021/01/12 07:17:13;;;;;;;;;;;;;;;0.91;62.30;100806.19;5051772;28;19917;-82
2021/01/12 07:20:08;;;;;;;;;;;;;;;0.91;61.53;100803.53;5064102;28;19920;-82
2021/01/12 07:22:52;;;;;;;;;;;;;;;0.46;61.65;100809.84;5059186;28;19921;-81
2021/01/12 07:25:38;;;;;;;;;;;;;;;0.34;62.21;100806.50;5042473;28;19912;-82
2021/01/12 07:28:24;;;;;;;;;;;;;;;0.38;62.66;100804.94;5047244;28;19913;-82
2021/01/12 07:31:09;;;;;;;;;;;;;;;0.69;62.73;100800.81;5029805;28;19913;-82
2021/01/12 07:33:55;;;;;;;;;;;;;;;0.56;62.57;100799.31;5034558;28;19913;-83
2021/01/12 07:36:40;;;;;;;;;;;;;;;0.77;63.25;100811.91;5025728;28;19913;-83
2021/01/12 07:39:25;;;;;;;;;;;;;;;0.83;62.11;100821.63;5056252;28;19917;-83
2021/01/12 07:42:10;;;;;;;;;;;;;;;0.86;61.36;100820.31;5041629;28;19913;-82
2021/01/12 07:44:55;;;;;;;;;;;;;;;0.90;61.51;100818.75;5039919;28;20379;-82
2021/01/12 07:47:40;;;;;;;;;;;;;;;0.95;61.10;100821.50;5042209;28;19912;-82
2021/01/12 07:50:25;;;;;;;;;;;;;;;0.96;60.50;100819.63;5058168;28;19916;-82
2021/01/12 07:53:10;;;;;;;;;;;;;;;0.94;59.04;100819.88;5033899;28;19917;-82
2021/01/12 07:55:55;;;;;;;;;;;;;;;0.94;58.31;100825.22;5031064;28;19920;-83
2021/01/12 07:58:39;;;;;;;;;;;;;;;0.62;57.71;100825.06;5057805;28;19913;-83
2021/01/12 08:01:27;;;;;;;;;;;;;;;0.46;59.33;100825.91;5039844;28;19916;-82
2021/01/12 08:04:15;;;;;;;;;;;;;;;0.51;59.30;100831.34;5025369;28;19912;-82
2021/01/12 08:07:03;;;;;;;;;;;;;;;0.67;58.57;100817.13;5042178;28;19913;-83
2021/01/12 08:09:51;;;;;;;;;;;;;;;0.81;59.54;100822.94;5041661;28;19912;-83
2021/01/12 08:12:35;;;;;;;;;;;;;;;0.82;58.52;100814.63;5031072;28;19912;-82
2021/01/12 08:15:20;;;;;;;;;;;;;;;0.85;57.85;100822.19;5040318;28;19913;-82
2021/01/12 08:18:05;;;;;;;;;;;;;;;0.63;58.36;100807.16;5027374;28;20414;-82
2021/01/12 08:20:54;;;;;;;;;;;;;;;0.44;59.71;100803.97;5031350;28;19917;-82
2021/01/12 08:23:38;;;;;;;;;;;;;;;0.99;58.15;100811.09;5068840;28;19913;-81
2021/01/12 08:26:23;;;;;;;;;;;;;;;1.25;57.19;100799.63;5054751;28;20334;-81
2021/01/12 08:29:07;;;;;;;;;;;;;;;1.35;56.36;100799.72;5073762;28;20291;-80
2021/01/12 08:31:57;;;;;;;;;;;;;;;1.34;56.23;100808.00;5071114;28;19912;-82
2021/01/12 08:34:41;;;;;;;;;;;;;;;1.76;56.27;100800.13;5068707;28;19920;-81
2021/01/12 08:37:27;;;;;;;;;;;;;;;1.85;54.96;100803.94;5078185;28;19912;-81
2021/01/12 08:40:13;;;;;;;;;;;;;;;1.61;56.06;100806.97;5057531;28;19917;-81
2021/01/12 08:42:58;;;;;;;;;;;;;;;2.00;55.27;100812.13;5027243;28;19913;-81
2021/01/12 08:45:43;;;;;;;;;;;;;;;6.44;69.75;100821.78;5058649;28;19917;-82
2021/01/12 08:48:28;;;;;;;;;;;;;;;8.46;56.21;100820.13;5033774;28;19913;-81
2021/01/12 08:51:16;;;;;;;;;;;;;;;8.53;51.00;100825.97;5069253;28;19913;-83
2021/01/12 08:54:01;;;;;;;;;;;;;;;7.62;45.80;100813.84;5034741;28;19912;-83
2021/01/12 08:56:53;;;;;;;;;;;;;;;4.08;50.66;100817.25;5041788;28;19913;-80
2021/01/12 08:59:38;;;;;;;;;;;;;;;3.66;51.91;100819.34;5032035;28;20330;-81
2021/01/12 09:02:22;;;;;;;;;;;;;;;3.38;53.57;100821.47;5043993;28;19912;-81
2021/01/12 09:05:10;;;;;;;;;;;;;;;3.14;54.18;100823.00;5034138;28;19912;-82
2021/01/12 09:08:16;;;;;;;;;;;;;;;2.85;54.82;100816.41;5062668;28;19920;-84
2021/01/12 09:11:05;;;;;;;;;;;;;;;2.88;54.48;100824.78;5075547;28;19912;-82
2021/01/12 09:13:50;;;;;;;;;;;;;;;2.92;55.51;100814.31;5032411;28;19916;-83
2021/01/12 09:16:36;;;;;;;;;;;;;;;3.05;54.31;100813.03;5073194;28;19913;-83
2021/01/12 09:19:21;;;;;;;;;;;;;;;2.93;54.52;100819.44;5057151;28;19916;-83
2021/01/12 09:22:15;;;;;;;;;;;;;;;2.98;54.21;100818.63;5072589;28;19912;-83
2021/01/12 09:25:06;;;;;;;;;;;;;;;3.23;53.71;100829.47;5034086;28;19913;-83
2021/01/12 09:27:50;;;;;;;;;;;;;;;3.48;52.78;100827.94;5057120;28;19908;-83
2021/01/12 09:30:35;;;;;;;;;;;;;;;3.39;52.30;100833.84;5071276;28;19913;-83
2021/01/12 09:33:23;;;;;;;;;;;;;;;3.51;52.26;100830.09;5034012;28;20371;-83
2021/01/12 09:36:10;;;;;;;;;;;;;;;3.63;52.08;100842.22;5045293;28;19912;-84
2021/01/12 09:38:55;;;;;;;;;;;;;;;3.73;51.72;100830.69;5043448;28;19921;-84
2021/01/12 09:41:40;;;;;;;;;;;;;;;3.94;51.09;100831.50;5071071;28;19917;-83
2021/01/12 09:44:25;;;;;;;;;;;;;;;4.08;46.91;100833.38;5060405;28;20331;-84
2021/01/12 09:47:10;;;;;;;;;;;;;;;4.15;45.41;100836.63;5056242;28;20321;-83
2021/01/12 09:49:55;;;;;;;;;;;;;;;4.66;45.21;100823.09;5034846;28;20390;-83
2021/01/12 09:52:40;;;;;;;;;;;;;;;4.62;43.86;100824.72;5060638;28;19913;-84
2021/01/12 09:55:25;;;;;;;;;;;;;;;5.04;42.52;100825.13;5072839;28;19913;-83
2021/01/12 09:58:09;;;;;;;;;;;;;;;5.04;43.25;100827.81;5056788;28;20307;-83
2021/01/12 10:00:54;;;;;;;;;;;;;;;5.36;43.03;100827.41;5058158;28;19916;-83
2021/01/12 10:03:39;;;;;;;;;;;;;;;5.42;42.30;100825.50;5031771;28;20503;-83
2021/01/12 10:06:27;;;;;;;;;;;;;;;5.23;43.08;100819.13;5029093;28;20394;-84
2021/01/12 10:09:12;;;;;;;;;;;;;;;4.72;45.18;100816.63;5057114;28;19913;-84
2021/01/12 10:11:56;;;;;;;;;;;;;;;4.85;43.56;100816.03;5031531;28;20375;-83
2021/01/12 10:14:42;;;;;;;;;;;;;;;4.78;41.90;100815.50;5042600;28;19912;-84
2021/01/12 10:17:27;;;;;;;;;;;;;;;5.01;41.95;100816.78;5032851;28;19912;-83
2021/01/12 10:20:11;;;;;;;;;;;;;;;4.84;41.78;100811.72;5044603;28;19913;-83
2021/01/12 10:22:57;;;;;;;;;;;;;;;4.81;42.59;100803.41;5030500;28;20379;-84
2021/01/12 10:25:41;;;;;;;;;;;;;;;4.71;42.15;100801.53;5033759;28;19913;-84
2021/01/12 10:28:26;;;;;;;;;;;;;;;4.59;41.65;100801.03;5030322;28;19912;-83
2021/01/12 10:31:14;;;;;;;;;;;;;;;4.51;42.72;100788.13;5039278;28;19913;-81
2021/01/12 10:33:58;;;;;;;;;;;;;;;4.48;43.55;100780.59;5020777;28;19913;-82
2021/01/12 10:36:43;;;;;;;;;;;;;;;4.63;43.51;100789.44;5032906;28;19913;-82
2021/01/12 10:39:28;;;;;;;;;;;;;;;4.57;43.36;100781.66;5047710;28;19913;-82
2021/01/12 10:42:13;;;;;;;;;;;;;;;4.94;42.64;100776.66;5067032;28;19917;-82
2021/01/12 10:44:58;;;;;;;;;;;;;;;5.37;41.20;100775.09;5049114;28;19913;-83
2021/01/12 10:47:45;;;;;;;;;;;;;;;5.70;40.60;100778.91;5025399;28;20303;-81
2021/01/12 10:50:30;;;;;;;;;;;;;;;6.06;40.25;100781.34;5050706;28;20379;-81
2021/01/12 10:53:14;;;;;;;;;;;;;;;5.95;39.54;100772.53;5059178;28;19917;-81
2021/01/12 10:56:01;;;;;;;;;;;;;;;6.08;40.82;100769.19;5044153;28;19912;-81
2021/01/12 10:58:46;;;;;;;;;;;;;;;5.85;39.96;100762.59;5063962;28;19913;-80
2021/01/12 11:01:31;;;;;;;;;;;;;;;5.60;40.30;100752.00;5075433;28;19913;-81
2021/01/12 11:04:16;;;;;;;;;;;;;;;5.18;41.08;100752.56;5079179;28;19916;-81
2021/01/12 11:07:01;;;;;;;;;;;;;;;4.89;41.28;100752.44;5058205;28;19913;-81
2021/01/12 11:09:48;;;;;;;;;;;;;;;4.81;42.54;100749.53;5075916;28;19914;-81
2021/01/12 11:12:33;;;;;;;;;;;;;;;4.48;42.66;100737.50;5051889;28;19913;-80
2021/01/12 11:15:19;;;;;;;;;;;;;;;4.34;43.13;100736.47;5042266;28;19912;-80
2021/01/12 11:18:03;;;;;;;;;;;;;;;4.43;43.87;100742.91;5043020;28;19912;-81
2021/01/12 11:20:48;;;;;;;;;;;;;;;4.66;43.52;100737.72;5043229;28;19912;-81
2021/01/12 11:23:33;;;;;;;;;;;;;;;4.85;43.35;100718.25;5030080;28;19917;-81
2021/01/12 11:26:17;;;;;;;;;;;;;;;4.90;42.13;100716.34;5032885;28;19913;-81
2021/01/12 11:29:02;;;;;;;;;;;;;;;5.14;41.67;100709.19;5031317;28;20379;-80
2021/01/12 11:31:47;;;;;;;;;;;;;;;5.04;41.43;100709.25;5029474;28;19913;-81
2021/01/12 11:34:31;;;;;;;;;;;;;;;4.93;41.11;100709.56;5047595;28;20371;-81
2021/01/12 11:37:16;;;;;;;;;;;;;;;5.15;40.79;100702.72;5029939;28;19912;-81
2021/01/12 11:40:02;;;;;;;;;;;;;;;5.37;40.26;100698.81;5043999;28;19912;-81
2021/01/12 11:42:46;;;;;;;;;;;;;;;5.80;38.12;100699.78;5043482;28;19916;-81
2021/01/12 11:45:30;;;;;;;;;;;;;;;6.14;38.15;100688.97;5058556;28;20375;-81
2021/01/12 11:48:15;;;;;;;;;;;;;;;6.76;37.06;100683.34;5043408;28;20294;-81
2021/01/12 11:51:00;;;;;;;;;;;;;;;6.80;37.23;100672.78;5042858;28;19912;-82
2021/01/12 11:53:45;;;;;;;;;;;;;;;6.87;36.65;100671.31;5064543;28;19912;-81
2021/01/12 11:56:30;;;;;;;;;;;;;;;7.28;36.13;100668.00;5044153;28;20298;-82
2021/01/12 11:59:15;;;;;;;;;;;;;;;7.09;36.76;100664.53;5031894;28;19913;-81
2021/01/12 12:02:00;;;;;;;;;;;;;;;7.14;36.83;100653.63;5057841;28;19916;-80
2021/01/12 12:04:44;;;;;;;;;;;;;;;7.17;37.34;100651.13;5058562;28;19916;-81
2021/01/12 12:07:33;;;;;;;;;;;;;;;7.12;38.12;100643.09;5071646;28;19912;-81
2021/01/12 12:10:18;;;;;;;;;;;;;;;6.92;39.01;100632.59;5060211;28;19913;-81
2021/01/12 12:13:03;;;;;;;;;;;;;;;7.09;40.30;100621.28;5070922;28;19912;-81
2021/01/12 12:15:48;;;;;;;;;;;;;;;7.42;38.99;100612.06;5043165;28;19912;-81
2021/01/12 12:18:33;;;;;;;;;;;;;;;7.50;39.56;100610.59;5032456;28;19913;-81
2021/01/12 12:21:17;;;;;;;;;;;;;;;7.52;40.25;100602.97;5049094;28;19913;-82
2021/01/12 12:24:01;;;;;;;;;;;;;;;7.51;40.84;100612.19;5076202;28;20466;-81
2021/01/12 12:26:46;;;;;;;;;;;;;;;7.27;41.13;100621.22;5044061;28;19913;-81
2021/01/12 12:29:31;;;;;;;;;;;;;;;7.22;42.40;100620.50;5030628;28;19913;-81
2021/01/12 12:32:15;;;;;;;;;;;;;;;7.36;42.47;100610.56;5056528;28;19916;-82
2021/01/12 12:34:59;;;;;;;;;;;;;;;7.39;40.31;100601.84;5061909;28;19924;-81
2021/01/12 12:37:44;;;;;;;;;;;;;;;7.70;39.92;100597.50;5038869;28;19947;-82
2021/01/12 12:40:29;;;;;;;;;;;;;;;7.80;40.09;100601.13;5055671;28;19921;-81
2021/01/12 12:43:13;;;;;;;;;;;;;;;7.21;40.67;100581.06;5032169;28;20393;-81
2021/01/12 12:45:57;;;;;;;;;;;;;;;7.65;41.19;100573.25;5057196;28;19913;-81
2021/01/12 12:48:43;;;;;;;;;;;;;;;7.52;41.00;100560.47;5055877;28;19912;-81
2021/01/12 12:51:28;;;;;;;;;;;;;;;7.39;41.16;100552.34;5045005;28;19913;-81
2021/01/12 12:54:12;;;;;;;;;;;;;;;7.24;41.09;100569.66;5056605;28;19912;-83
2021/01/12 12:56:59;;;;;;;;;;;;;;;7.19;41.61;100567.84;5054429;28;19912;-81
2021/01/12 12:59:43;;;;;;;;;;;;;;;6.96;42.51;100563.31;5031002;28;19912;-81
2021/01/12 13:02:28;;;;;;;;;;;;;;;6.96;42.38;100557.16;5043570;28;20387;-83
2021/01/12 13:05:13;;;;;;;;;;;;;;;6.62;43.22;100550.06;5071889;28;19912;-81
2021/01/12 13:07:58;;;;;;;;;;;;;;;6.60;44.20;100548.78;5109187;22;19920;-79
2021/01/12 13:10:42;;;;;;;;;;;;;;;6.28;44.02;100544.09;5075793;28;21192;-78
2021/01/12 13:13:28;;;;;;;;;;;;;;;6.34;44.97;100534.84;5095131;28;20382;-78
2021/01/12 13:16:13;;;;;;;;;;;;;;;6.23;44.17;100539.56;5059957;28;19916;-79
2021/01/12 13:19:01;;;;;;;;;;;;;;;6.27;44.91;100534.38;5072378;28;19916;-79
2021/01/12 13:21:50;;;;;;;;;;;;;;;6.21;45.83;100536.34;5071999;28;19916;-79
2021/01/12 13:24:35;;;;;;;;;;;;;;;6.16;45.39;100539.09;5072491;28;20285;-78
2021/01/12 13:27:22;;;;;;;;;;;;;;;5.81;46.13;100532.22;5071301;28;19912;-80
2021/01/12 13:30:08;;;;;;;;;;;;;;;5.75;46.39;100538.75;5062582;28;20362;-80
2021/01/12 13:32:53;;;;;;;;;;;;;;;5.86;47.21;100528.66;5079949;28;19912;-79
2021/01/12 13:35:38;;;;;;;;;;;;;;;5.88;46.61;100535.44;5078283;28;19916;-79
2021/01/12 13:38:22;;;;;;;;;;;;;;;5.71;46.68;100531.53;5075427;28;19912;-79
2021/01/12 13:41:06;;;;;;;;;;;;;;;5.63;47.64;100535.69;5073876;28;19916;-80
2021/01/12 13:43:51;;;;;;;;;;;;;;;5.85;47.37;100522.47;5077749;28;19912;-80
2021/01/12 13:46:42;;;;;;;;;;;;;;;5.84;47.02;100520.84;5074139;28;19912;-79
2021/01/12 13:49:26;;;;;;;;;;;;;;;5.86;46.31;100521.38;5087268;28;19912;-80
2021/01/12 13:52:15;;;;;;;;;;;;;;;5.84;46.93;100525.47;5073846;28;20492;-78
2021/01/12 13:55:00;;;;;;;;;;;;;;;5.89;47.22;100520.81;5072680;28;19912;-78
2021/01/12 13:58:04;;;;;;;;;;;;;;;5.80;47.01;100511.72;5074615;28;19917;-79
2021/01/12 14:00:48;;;;;;;;;;;;;;;5.70;47.51;100509.16;5053862;28;19916;-78
2021/01/12 14:03:34;;;;;;;;;;;;;;;5.77;47.75;100515.00;5077329;28;19916;-78
2021/01/12 14:06:23;;;;;;;;;;;;;;;5.90;47.55;100514.34;5074999;28;19912;-78
2021/01/12 14:09:08;;;;;;;;;;;;;;;5.91;46.26;100515.94;5073648;28;19912;-78
2021/01/12 14:11:52;;;;;;;;;;;;;;;5.81;45.84;100501.75;5072357;28;20298;-78
2021/01/12 14:14:38;;;;;;;;;;;;;;;5.86;45.68;100496.28;5079254;28;19912;-78
2021/01/12 14:17:23;;;;;;;;;;;;;;;5.99;45.81;100491.00;5062838;28;19912;-78
2021/01/12 14:20:07;;;;;;;;;;;;;;;6.05;45.10;100489.03;5075868;28;19917;-79
2021/01/12 14:22:53;;;;;;;;;;;;;;;6.25;47.04;100493.34;5094645;28;19913;-80